sensor_id;sensor_type;location;lat;lon;timestamp;pressure;altitude;pressure_sealevel;temperature;humidity
71770;BME280;66386;52.122;5.420;2024-03-22T00:00:10;102141.97;;;10.41;100.00
71770;BME280;66386;52.122;5.420;2024-03-22T00:02:39;102141.97;;;10.43;100.00
71770;BME280;66386;52.122;5.420;2024-03-22T00:05:05;102147.06;;;10.44;100.00
71770;BME280;66386;52.122;5.420;2024-03-22T00:07:31;102142.75;;;10.46;100.00
71770;BME280;66386;52.122;5.420;2024-03-22T00:09:56;102126.41;;;10.51;100.00
71770;BME280;66386;52.122;5.420;2024-03-22T00:12:22;102131.53;;;10.51;100.00
71770;BME280;66386;52.122;5.420;2024-03-22T00:14:48;102134.94;;;10.51;100.00
71770;BME280;66386;52.122;5.420;2024-03-22T00:17:14;102125.53;;;10.52;100.00
71770;BME280;66386;52.122;5.420;2024-03-22T00:19:39;102117.84;;;10.52;100.00
71770;BME280;66386;52.122;5.420;2024-03-22T00:22:05;102104.13;;;10.50;100.00
71770;BME280;66386;52.122;5.420;2024-03-22T00:24:30;102100.72;;;10.49;100.00
71770;BME280;66386;52.122;5.420;2024-03-22T00:26:56;102101.59;;;10.48;100.00
71770;BME280;66386;52.122;5.420;2024-03-22T00:29:21;102095.63;;;10.46;100.00
71770;BME280;66386;52.122;5.420;2024-03-22T00:31:47;102091.38;;;10.43;100.00
71770;BME280;66386;52.122;5.420;2024-03-22T00:34:12;102087.97;;;10.43;100.00
71770;BME280;66386;52.122;5.420;2024-03-22T00:36:38;102080.31;;;10.41;100.00
71770;BME280;66386;52.122;5.420;2024-03-22T00:39:03;102085.44;;;10.41;100.00
71770;BME280;66386;52.122;5.420;2024-03-22T00:41:29;102086.31;;;10.40;100.00
71770;BME280;66386;52.122;5.420;2024-03-22T00:43:55;102071.78;;;10.38;100.00
71770;BME280;66386;52.122;5.420;2024-03-22T00:46:20;102069.22;;;10.36;100.00
71770;BME280;66386;52.122;5.420;2024-03-22T00:48:46;102058.97;;;10.35;100.00
71770;BME280;66386;52.122;5.420;2024-03-22T00:51:11;102050.44;;;10.34;100.00
71770;BME280;66386;52.122;5.420;2024-03-22T00:53:37;102052.13;;;10.32;100.00
71770;BME280;66386;52.122;5.420;2024-03-22T00:56:03;102050.44;;;10.31;100.00
71770;BME280;66386;52.122;5.420;2024-03-22T00:58:29;102045.31;;;10.31;100.00
71770;BME280;66386;52.122;5.420;2024-03-22T01:00:55;102046.13;;;10.33;100.00
71770;BME280;66386;52.122;5.420;2024-03-22T01:03:21;102043.56;;;10.31;100.00
71770;BME280;66386;52.122;5.420;2024-03-22T01:05:47;102038.44;;;10.31;100.00
71770;BME280;66386;52.122;5.420;2024-03-22T01:08:13;102041.84;;;10.32;100.00
71770;BME280;66386;52.122;5.420;2024-03-22T01:10:38;102048.75;;;10.30;100.00
71770;BME280;66386;52.122;5.420;2024-03-22T01:13:04;102047.84;;;10.33;100.00
71770;BME280;66386;52.122;5.420;2024-03-22T01:15:30;102042.75;;;10.31;100.00
71770;BME280;66386;52.122;5.420;2024-03-22T01:17:55;102034.13;;;10.32;100.00
71770;BME280;66386;52.122;5.420;2024-03-22T01:20:21;102047.88;;;10.31;100.00
71770;BME280;66386;52.122;5.420;2024-03-22T01:22:46;102046.19;;;10.30;100.00
71770;BME280;66386;52.122;5.420;2024-03-22T01:25:12;102049.59;;;10.30;100.00
71770;BME280;66386;52.122;5.420;2024-03-22T01:27:38;102037.59;;;10.31;100.00
71770;BME280;66386;52.122;5.420;2024-03-22T01:30:04;102040.19;;;10.29;100.00
71770;BME280;66386;52.122;5.420;2024-03-22T01:32:30;102037.63;;;10.29;100.00
71770;BME280;66386;52.122;5.420;2024-03-22T01:34:57;102032.50;;;10.29;100.00
71770;BME280;66386;52.122;5.420;2024-03-22T01:37:23;102029.91;;;10.29;100.00
71770;BME280;66386;52.122;5.420;2024-03-22T01:39:48;102039.34;;;10.29;100.00
71770;BME280;66386;52.122;5.420;2024-03-22T01:42:14;102029.00;;;10.32;100.00
71770;BME280;66386;52.122;5.420;2024-03-22T01:44:39;102017.84;;;10.35;100.00
71770;BME280;66386;52.122;5.420;2024-03-22T01:47:05;102021.25;;;10.35;100.00
71770;BME280;66386;52.122;5.420;2024-03-22T01:49:30;102016.13;;;10.35;100.00
71770;BME280;66386;52.122;5.420;2024-03-22T01:51:56;102009.25;;;10.37;100.00
71770;BME280;66386;52.122;5.420;2024-03-22T01:54:22;102016.09;;;10.38;100.00
71770;BME280;66386;52.122;5.420;2024-03-22T01:56:47;102008.38;;;10.38;100.00
71770;BME280;66386;52.122;5.420;2024-03-22T01:59:14;102015.22;;;10.38;100.00
71770;BME280;66386;52.122;5.420;2024-03-22T02:01:39;102016.09;;;10.38;100.00
71770;BME280;66386;52.122;5.420;2024-03-22T02:04:05;102015.25;;;10.36;100.00
71770;BME280;66386;52.122;5.420;2024-03-22T02:06:31;102011.84;;;10.36;100.00
71770;BME280;66386;52.122;5.420;2024-03-22T02:08:57;102007.56;;;10.36;100.00
71770;BME280;66386;52.122;5.420;2024-03-22T02:11:24;102010.09;;;10.38;100.00
71770;BME280;66386;52.122;5.420;2024-03-22T02:13:50;102014.38;;;10.39;100.00
71770;BME280;66386;52.122;5.420;2024-03-22T02:16:16;102004.91;;;10.41;100.00
71770;BME280;66386;52.122;5.420;2024-03-22T02:18:42;101999.72;;;10.42;100.00
71770;BME280;66386;52.122;5.420;2024-03-22T02:21:07;102003.16;;;10.43;100.00
71770;BME280;66386;52.122;5.420;2024-03-22T02:23:37;101988.63;;;10.42;100.00
71770;BME280;66386;52.122;5.420;2024-03-22T02:26:04;101992.00;;;10.45;100.00
71770;BME280;66386;52.122;5.420;2024-03-22T02:28:31;101988.56;;;10.45;100.00
71770;BME280;66386;52.122;5.420;2024-03-22T02:31:03;101991.97;;;10.47;100.00
71770;BME280;66386;52.122;5.420;2024-03-22T02:33:29;101984.22;;;10.48;100.00
71770;BME280;66386;52.122;5.420;2024-03-22T02:35:55;101976.44;;;10.52;100.00
71770;BME280;66386;52.122;5.420;2024-03-22T02:38:20;101980.75;;;10.50;100.00
71770;BME280;66386;52.122;5.420;2024-03-22T02:40:48;101977.31;;;10.51;100.00
71770;BME280;66386;52.122;5.420;2024-03-22T02:43:14;101975.63;;;10.50;100.00
71770;BME280;66386;52.122;5.420;2024-03-22T02:45:39;101961.91;;;10.51;100.00
71770;BME280;66386;52.122;5.420;2024-03-22T02:48:06;101965.31;;;10.50;100.00
71770;BME280;66386;52.122;5.420;2024-03-22T02:50:35;101961.09;;;10.48;100.00
71770;BME280;66386;52.122;5.420;2024-03-22T02:53:01;101951.66;;;10.47;100.00
71770;BME280;66386;52.122;5.420;2024-03-22T02:55:27;101944.81;;;10.46;100.00
71770;BME280;66386;52.122;5.420;2024-03-22T02:57:53;101944.03;;;10.44;100.00
71770;BME280;66386;52.122;5.420;2024-03-22T03:00:18;101940.59;;;10.44;100.00
71770;BME280;66386;52.122;5.420;2024-03-22T03:02:45;101930.34;;;10.42;100.00
71770;BME280;66386;52.122;5.420;2024-03-22T03:05:11;101926.94;;;10.42;100.00
71770;BME280;66386;52.122;5.420;2024-03-22T03:07:36;101920.09;;;10.41;100.00
71770;BME280;66386;52.122;5.420;2024-03-22T03:10:02;101913.31;;;10.38;100.00
71770;BME280;66386;52.122;5.420;2024-03-22T03:12:28;101903.88;;;10.37;100.00
71770;BME280;66386;52.122;5.420;2024-03-22T03:14:53;101894.50;;;10.35;100.00
71770;BME280;66386;52.122;5.420;2024-03-22T03:17:19;101895.44;;;10.29;100.00
71770;BME280;66386;52.122;5.420;2024-03-22T03:19:44;101895.50;;;10.26;100.00
71770;BME280;66386;52.122;5.420;2024-03-22T03:22:10;101897.28;;;10.22;100.00
71770;BME280;66386;52.122;5.420;2024-03-22T03:24:36;101886.19;;;10.19;100.00
71770;BME280;66386;52.122;5.420;2024-03-22T03:27:01;101898.22;;;10.18;100.00
71770;BME280;66386;52.122;5.420;2024-03-22T03:29:27;101893.94;;;10.17;100.00
71770;BME280;66386;52.122;5.420;2024-03-22T03:31:53;101885.44;;;10.15;100.00
71770;BME280;66386;52.122;5.420;2024-03-22T03:34:18;101883.72;;;10.14;100.00
71770;BME280;66386;52.122;5.420;2024-03-22T03:36:46;101882.03;;;10.13;100.00
71770;BME280;66386;52.122;5.420;2024-03-22T03:39:11;101872.66;;;10.09;100.00
71770;BME280;66386;52.122;5.420;2024-03-22T03:41:37;101874.44;;;10.07;100.00
71770;BME280;66386;52.122;5.420;2024-03-22T03:44:02;101864.16;;;10.07;100.00
71770;BME280;66386;52.122;5.420;2024-03-22T03:46:28;101867.63;;;10.04;100.00
71770;BME280;66386;52.122;5.420;2024-03-22T03:48:53;101862.50;;;10.03;100.00
71770;BME280;66386;52.122;5.420;2024-03-22T03:51:19;101861.69;;;10.02;100.00
71770;BME280;66386;52.122;5.420;2024-03-22T03:53:44;101855.69;;;10.03;100.00
71770;BME280;66386;52.122;5.420;2024-03-22T03:56:10;101849.69;;;10.01;100.00
71770;BME280;66386;52.122;5.420;2024-03-22T03:58:35;101852.31;;;10.00;100.00
71770;BME280;66386;52.122;5.420;2024-03-22T04:01:08;101859.19;;;9.98;100.00
71770;BME280;66386;52.122;5.420;2024-03-22T04:03:34;101857.47;;;9.98;100.00
71770;BME280;66386;52.122;5.420;2024-03-22T04:06:00;101847.19;;;9.98;100.00
71770;BME280;66386;52.122;5.420;2024-03-22T04:08:26;101850.63;;;9.97;100.00
71770;BME280;66386;52.122;5.420;2024-03-22T04:10:55;101843.81;;;9.96;100.00
71770;BME280;66386;52.122;5.420;2024-03-22T04:13:24;101844.72;;;9.93;100.00
71770;BME280;66386;52.122;5.420;2024-03-22T04:15:51;101843.88;;;9.91;100.00
71770;BME280;66386;52.122;5.420;2024-03-22T04:18:17;101851.59;;;9.90;100.00
71770;BME280;66386;52.122;5.420;2024-03-22T04:20:42;101853.34;;;9.89;100.00
71770;BME280;66386;52.122;5.420;2024-03-22T04:23:10;101855.06;;;9.89;100.00
71770;BME280;66386;52.122;5.420;2024-03-22T04:25:36;101858.44;;;9.91;100.00
71770;BME280;66386;52.122;5.420;2024-03-22T04:28:02;101856.78;;;9.88;100.00
71770;BME280;66386;52.122;5.420;2024-03-22T04:30:27;101845.63;;;9.89;100.00
71770;BME280;66386;52.122;5.420;2024-03-22T04:32:53;101847.38;;;9.89;100.00
71770;BME280;66386;52.122;5.420;2024-03-22T04:35:18;101845.66;;;9.88;100.00
71770;BME280;66386;52.122;5.420;2024-03-22T04:37:44;101842.31;;;9.84;100.00
71770;BME280;66386;52.122;5.420;2024-03-22T04:40:10;101843.19;;;9.83;100.00
71770;BME280;66386;52.122;5.420;2024-03-22T04:42:36;101842.31;;;9.84;100.00
71770;BME280;66386;52.122;5.420;2024-03-22T04:45:01;101842.31;;;9.83;100.00
71770;BME280;66386;52.122;5.420;2024-03-22T04:47:27;101851.78;;;9.81;100.00
71770;BME280;66386;52.122;5.420;2024-03-22T04:49:52;101842.41;;;9.78;100.00
71770;BME280;66386;52.122;5.420;2024-03-22T04:52:18;101850.13;;;9.76;100.00
71770;BME280;66386;52.122;5.420;2024-03-22T04:54:44;101844.19;;;9.74;100.00
71770;BME280;66386;52.122;5.420;2024-03-22T04:57:10;101851.91;;;9.74;100.00
71770;BME280;66386;52.122;5.420;2024-03-22T04:59:35;101837.34;;;9.73;100.00
71770;BME280;66386;52.122;5.420;2024-03-22T05:02:01;101842.53;;;9.72;100.00
71770;BME280;66386;52.122;5.420;2024-03-22T05:04:26;101845.06;;;9.73;100.00
71770;BME280;66386;52.122;5.420;2024-03-22T05:06:52;101848.50;;;9.72;100.00
71770;BME280;66386;52.122;5.420;2024-03-22T05:09:17;101843.34;;;9.72;100.00
71770;BME280;66386;52.122;5.420;2024-03-22T05:11:43;101849.34;;;9.73;100.00
71770;BME280;66386;52.122;5.420;2024-03-22T05:14:08;101850.19;;;9.73;100.00
71770;BME280;66386;52.122;5.420;2024-03-22T05:16:34;101840.78;;;9.74;100.00
71770;BME280;66386;52.122;5.420;2024-03-22T05:19:00;101834.78;;;9.73;100.00
71770;BME280;66386;52.122;5.420;2024-03-22T05:21:26;101826.25;;;9.73;100.00
71770;BME280;66386;52.122;5.420;2024-03-22T05:23:51;101836.53;;;9.71;100.00
71770;BME280;66386;52.122;5.420;2024-03-22T05:26:17;101834.00;;;9.70;100.00
71770;BME280;66386;52.122;5.420;2024-03-22T05:28:44;101842.53;;;9.70;100.00
71770;BME280;66386;52.122;5.420;2024-03-22T05:31:10;101826.38;;;9.67;100.00
71770;BME280;66386;52.122;5.420;2024-03-22T05:33:35;101825.47;;;9.68;100.00
71770;BME280;66386;52.122;5.420;2024-03-22T05:36:01;101823.78;;;9.67;100.00
71770;BME280;66386;52.122;5.420;2024-03-22T05:38:26;101822.06;;;9.67;100.00
71770;BME280;66386;52.122;5.420;2024-03-22T05:40:52;101821.22;;;9.67;100.00
71770;BME280;66386;52.122;5.420;2024-03-22T05:43:17;101822.06;;;9.67;100.00
71770;BME280;66386;52.122;5.420;2024-03-22T05:45:43;101811.81;;;9.66;100.00
71770;BME280;66386;52.122;5.420;2024-03-22T05:48:08;101812.69;;;9.65;100.00
71770;BME280;66386;52.122;5.420;2024-03-22T05:50:34;101810.16;;;9.63;100.00
71770;BME280;66386;52.122;5.420;2024-03-22T05:52:59;101808.44;;;9.62;100.00
71770;BME280;66386;52.122;5.420;2024-03-22T05:55:25;101809.41;;;9.58;100.00
71770;BME280;66386;52.122;5.420;2024-03-22T05:57:52;101801.66;;;9.59;100.00
71770;BME280;66386;52.122;5.420;2024-03-22T06:00:18;101801.66;;;9.59;100.00
71770;BME280;66386;52.122;5.420;2024-03-22T06:02:44;101790.53;;;9.59;100.00
71770;BME280;66386;52.122;5.420;2024-03-22T06:05:09;101791.47;;;9.55;100.00
71770;BME280;66386;52.122;5.420;2024-03-22T06:07:35;101796.59;;;9.56;100.00
71770;BME280;66386;52.122;5.420;2024-03-22T06:10:08;101793.09;;;9.59;100.00
71770;BME280;66386;52.122;5.420;2024-03-22T06:12:33;101799.03;;;9.64;100.00
71770;BME280;66386;52.122;5.420;2024-03-22T06:14:59;101791.28;;;9.66;100.00
71770;BME280;66386;52.122;5.420;2024-03-22T06:17:24;101794.66;;;9.68;100.00
71770;BME280;66386;52.122;5.420;2024-03-22T06:19:50;101793.84;;;9.67;100.00
71770;BME280;66386;52.122;5.420;2024-03-22T06:22:15;101792.06;;;9.69;100.00
71770;BME280;66386;52.122;5.420;2024-03-22T06:24:41;101794.59;;;9.71;100.00
71770;BME280;66386;52.122;5.420;2024-03-22T06:27:06;101786.94;;;9.69;100.00
71770;BME280;66386;52.122;5.420;2024-03-22T06:29:32;101786.03;;;9.72;100.00
71770;BME280;66386;52.122;5.420;2024-03-22T06:31:58;101778.28;;;9.75;100.00
71770;BME280;66386;52.122;5.420;2024-03-22T06:34:24;101784.25;;;9.77;100.00
71770;BME280;66386;52.122;5.420;2024-03-22T06:36:50;101784.19;;;9.80;100.00
71770;BME280;66386;52.122;5.420;2024-03-22T06:39:16;101790.09;;;9.84;100.00
71770;BME280;66386;52.122;5.420;2024-03-22T06:41:42;101785.81;;;9.86;100.00
71770;BME280;66386;52.122;5.420;2024-03-22T06:44:07;101785.78;;;9.87;100.00
71770;BME280;66386;52.122;5.420;2024-03-22T06:46:37;101781.41;;;9.91;100.00
71770;BME280;66386;52.122;5.420;2024-03-22T06:49:02;101777.97;;;9.92;100.00
71770;BME280;66386;52.122;5.420;2024-03-22T06:51:31;101783.91;;;9.94;100.00
71770;BME280;66386;52.122;5.420;2024-03-22T06:53:56;101786.44;;;9.97;100.00
71770;BME280;66386;52.122;5.420;2024-03-22T06:56:22;101781.22;;;10.00;100.00
71770;BME280;66386;52.122;5.420;2024-03-22T06:58:47;101782.03;;;10.04;100.00
71770;BME280;66386;52.122;5.420;2024-03-22T07:01:13;101783.63;;;10.09;100.00
71770;BME280;66386;52.122;5.420;2024-03-22T07:03:38;101782.69;;;10.13;100.00
71770;BME280;66386;52.122;5.420;2024-03-22T07:06:04;101780.06;;;10.17;100.00
71770;BME280;66386;52.122;5.420;2024-03-22T07:08:32;101779.06;;;10.24;100.00
71770;BME280;66386;52.122;5.420;2024-03-22T07:11:04;101782.53;;;10.21;100.00
71770;BME280;66386;52.122;5.420;2024-03-22T07:13:30;101786.88;;;10.19;100.00
71770;BME280;66386;52.122;5.420;2024-03-22T07:15:55;101790.25;;;10.21;100.00
71770;BME280;66386;52.122;5.420;2024-03-22T07:18:21;101785.09;;;10.21;100.00
71770;BME280;66386;52.122;5.420;2024-03-22T07:20:46;101773.09;;;10.22;100.00
71770;BME280;66386;52.122;5.420;2024-03-22T07:23:13;101778.16;;;10.25;100.00
71770;BME280;66386;52.122;5.420;2024-03-22T07:25:38;101787.66;;;10.23;100.00
71770;BME280;66386;52.122;5.420;2024-03-22T07:28:04;101781.56;;;10.27;100.00
71770;BME280;66386;52.122;5.420;2024-03-22T07:30:30;101777.25;;;10.29;100.00
71770;BME280;66386;52.122;5.420;2024-03-22T07:32:55;101789.19;;;10.31;100.00
71770;BME280;66386;52.122;5.420;2024-03-22T07:35:21;101787.44;;;10.32;100.00
71770;BME280;66386;52.122;5.420;2024-03-22T07:37:46;101783.25;;;10.29;100.00
71770;BME280;66386;52.122;5.420;2024-03-22T07:40:12;101787.50;;;10.29;100.00
71770;BME280;66386;52.122;5.420;2024-03-22T07:42:37;101787.59;;;10.26;100.00
71770;BME280;66386;52.122;5.420;2024-03-22T07:45:03;101784.19;;;10.25;100.00
71770;BME280;66386;52.122;5.420;2024-03-22T07:47:30;101794.41;;;10.27;100.00
71770;BME280;66386;52.122;5.420;2024-03-22T07:49:55;101777.34;;;10.24;100.00
71770;BME280;66386;52.122;5.420;2024-03-22T07:52:21;101787.63;;;10.24;100.00
71770;BME280;66386;52.122;5.420;2024-03-22T07:54:46;101779.88;;;10.26;100.00
71770;BME280;66386;52.122;5.420;2024-03-22T07:57:12;101779.00;;;10.27;100.00
71770;BME280;66386;52.122;5.420;2024-03-22T07:59:37;101780.72;;;10.26;100.00
71770;BME280;66386;52.122;5.420;2024-03-22T08:02:03;101787.63;;;10.24;100.00
71770;BME280;66386;52.122;5.420;2024-03-22T08:04:29;101779.03;;;10.25;100.00
71770;BME280;66386;52.122;5.420;2024-03-22T08:06:54;101773.88;;;10.27;100.00
71770;BME280;66386;52.122;5.420;2024-03-22T08:09:20;101782.38;;;10.29;100.00
71770;BME280;66386;52.122;5.420;2024-03-22T08:11:46;101778.06;;;10.31;100.00
71770;BME280;66386;52.122;5.420;2024-03-22T08:14:11;101771.25;;;10.28;100.00
71770;BME280;66386;52.122;5.420;2024-03-22T08:16:37;101776.47;;;10.25;100.00
71770;BME280;66386;52.122;5.420;2024-03-22T08:19:02;101777.31;;;10.26;100.00
71770;BME280;66386;52.122;5.420;2024-03-22T08:21:29;101775.59;;;10.25;100.00
71770;BME280;66386;52.122;5.420;2024-03-22T08:23:55;101779.88;;;10.26;100.00
71770;BME280;66386;52.122;5.420;2024-03-22T08:26:20;101779.84;;;10.27;100.00
71770;BME280;66386;52.122;5.420;2024-03-22T08:28:46;101773.03;;;10.25;100.00
71770;BME280;66386;52.122;5.420;2024-03-22T08:31:13;101781.75;;;10.19;100.00
71770;BME280;66386;52.122;5.420;2024-03-22T08:33:39;101775.81;;;10.16;100.00
71770;BME280;66386;52.122;5.420;2024-03-22T08:36:04;101782.69;;;10.13;100.00
71770;BME280;66386;52.122;5.420;2024-03-22T08:38:30;101771.56;;;10.13;100.00
71770;BME280;66386;52.122;5.420;2024-03-22T08:40:56;101774.09;;;10.14;100.00
71770;BME280;66386;52.122;5.420;2024-03-22T08:43:21;101771.50;;;10.16;100.00
71770;BME280;66386;52.122;5.420;2024-03-22T08:45:48;101773.22;;;10.16;100.00
71770;BME280;66386;52.122;5.420;2024-03-22T08:48:14;101768.13;;;10.14;100.00
71770;BME280;66386;52.122;5.420;2024-03-22T08:50:44;101775.91;;;10.11;100.00
71770;BME280;66386;52.122;5.420;2024-03-22T08:53:10;101778.50;;;10.09;100.00
71770;BME280;66386;52.122;5.420;2024-03-22T08:55:35;101780.22;;;10.07;100.00
71770;BME280;66386;52.122;5.420;2024-03-22T08:58:02;101763.97;;;10.07;100.00
71770;BME280;66386;52.122;5.420;2024-03-22T09:00:29;101776.81;;;10.07;100.00
71770;BME280;66386;52.122;5.420;2024-03-22T09:02:54;101770.00;;;10.06;100.00
71770;BME280;66386;52.122;5.420;2024-03-22T09:05:20;101770.88;;;10.05;100.00
71770;BME280;66386;52.122;5.420;2024-03-22T09:07:46;101776.00;;;10.06;100.00
71770;BME280;66386;52.122;5.420;2024-03-22T09:10:12;101775.13;;;10.06;100.00
71770;BME280;66386;52.122;5.420;2024-03-22T09:12:37;101764.84;;;10.06;100.00
71770;BME280;66386;52.122;5.420;2024-03-22T09:15:03;101779.47;;;10.04;100.00
71770;BME280;66386;52.122;5.420;2024-03-22T09:17:29;101770.88;;;10.05;100.00
71770;BME280;66386;52.122;5.420;2024-03-22T09:19:55;101771.66;;;10.08;100.00
71770;BME280;66386;52.122;5.420;2024-03-22T09:22:20;101770.75;;;10.11;100.00
71770;BME280;66386;52.122;5.420;2024-03-22T09:24:46;101776.75;;;10.10;100.00
71770;BME280;66386;52.122;5.420;2024-03-22T09:27:11;101768.22;;;10.09;100.00
71770;BME280;66386;52.122;5.420;2024-03-22T09:29:37;101769.09;;;10.08;100.00
71770;BME280;66386;52.122;5.420;2024-03-22T09:32:02;101765.66;;;10.09;100.00
71770;BME280;66386;52.122;5.420;2024-03-22T09:34:29;101760.38;;;10.16;100.00
71770;BME280;66386;52.122;5.420;2024-03-22T09:36:58;101763.75;;;10.18;100.00
71770;BME280;66386;52.122;5.420;2024-03-22T09:39:24;101758.59;;;10.21;100.00
71770;BME280;66386;52.122;5.420;2024-03-22T09:41:50;101764.56;;;10.21;100.00
71770;BME280;66386;52.122;5.420;2024-03-22T09:44:19;101766.22;;;10.24;100.00
71770;BME280;66386;52.122;5.420;2024-03-22T09:46:47;101771.25;;;10.28;100.00
71770;BME280;66386;52.122;5.420;2024-03-22T09:49:15;101767.00;;;10.27;100.00
71770;BME280;66386;52.122;5.420;2024-03-22T09:51:42;101752.47;;;10.25;100.00
71770;BME280;66386;52.122;5.420;2024-03-22T09:54:11;101757.56;;;10.29;100.00
71770;BME280;66386;52.122;5.420;2024-03-22T09:56:40;101755.84;;;10.28;100.00
71770;BME280;66386;52.122;5.420;2024-03-22T09:59:07;101760.97;;;10.28;100.00
71770;BME280;66386;52.122;5.420;2024-03-22T10:01:35;101755.75;;;10.35;100.00
71770;BME280;66386;52.122;5.420;2024-03-22T10:04:00;101760.88;;;10.33;100.00
71770;BME280;66386;52.122;5.420;2024-03-22T10:06:26;101760.97;;;10.28;100.00
71770;BME280;66386;52.122;5.420;2024-03-22T10:08:52;101757.47;;;10.33;100.00
71770;BME280;66386;52.122;5.420;2024-03-22T10:11:18;101752.34;;;10.33;100.00
71770;BME280;66386;52.122;5.420;2024-03-22T10:13:44;101749.81;;;10.31;100.00
71770;BME280;66386;52.122;5.420;2024-03-22T10:16:10;101748.88;;;10.37;100.00
71770;BME280;66386;52.122;5.420;2024-03-22T10:18:36;101754.84;;;10.37;100.00
71770;BME280;66386;52.122;5.420;2024-03-22T10:21:02;101748.88;;;10.35;100.00
71770;BME280;66386;52.122;5.420;2024-03-22T10:23:28;101748.00;;;10.36;100.00
71770;BME280;66386;52.122;5.420;2024-03-22T10:25:59;101742.06;;;10.34;100.00
71770;BME280;66386;52.122;5.420;2024-03-22T10:28:25;101741.16;;;10.35;100.00
71770;BME280;66386;52.122;5.420;2024-03-22T10:30:51;101746.16;;;10.43;100.00
71770;BME280;66386;52.122;5.420;2024-03-22T10:33:21;101747.78;;;10.47;100.00
71770;BME280;66386;52.122;5.420;2024-03-22T10:35:52;101741.06;;;10.41;100.00
71770;BME280;66386;52.122;5.420;2024-03-22T10:38:19;101745.19;;;10.48;100.00
71770;BME280;66386;52.122;5.420;2024-03-22T10:40:45;101744.25;;;10.51;100.00
71770;BME280;66386;52.122;5.420;2024-03-22T10:43:13;101734.97;;;10.45;100.00
71770;BME280;66386;52.122;5.420;2024-03-22T10:45:40;101747.66;;;10.53;100.00
71770;BME280;66386;52.122;5.420;2024-03-22T10:48:09;101751.16;;;10.49;100.00
71770;BME280;66386;52.122;5.420;2024-03-22T10:50:39;101752.84;;;10.50;100.00
71770;BME280;66386;52.122;5.420;2024-03-22T10:53:07;101755.34;;;10.53;100.00
71770;BME280;66386;52.122;5.420;2024-03-22T10:55:36;101749.31;;;10.56;100.00
71770;BME280;66386;52.122;5.420;2024-03-22T10:58:04;101749.59;;;10.42;100.00
71770;BME280;66386;52.122;5.420;2024-03-22T11:00:34;101746.19;;;10.41;100.00
71770;BME280;66386;52.122;5.420;2024-03-22T11:03:04;101750.28;;;10.50;100.00
71770;BME280;66386;52.122;5.420;2024-03-22T11:05:30;101749.47;;;10.48;100.00
71770;BME280;66386;52.122;5.420;2024-03-22T11:08:05;101739.06;;;10.54;100.00
71770;BME280;66386;52.122;5.420;2024-03-22T11:10:33;101730.31;;;10.61;100.00
71770;BME280;66386;52.122;5.420;2024-03-22T11:13:06;101739.53;;;10.70;100.00
71770;BME280;66386;52.122;5.420;2024-03-22T11:15:33;101734.44;;;10.69;100.00
71770;BME280;66386;52.122;5.420;2024-03-22T11:17:59;101730.09;;;10.72;100.00
71770;BME280;66386;52.122;5.420;2024-03-22T11:20:26;101729.88;;;10.80;100.00
71770;BME280;66386;52.122;5.420;2024-03-22T11:22:52;101730.59;;;10.87;100.00
71770;BME280;66386;52.122;5.420;2024-03-22T11:25:18;101723.66;;;10.90;100.00
71770;BME280;66386;52.122;5.420;2024-03-22T11:27:44;101720.97;;;10.95;100.00
71770;BME280;66386;52.122;5.420;2024-03-22T11:30:10;101718.31;;;10.98;100.00
71770;BME280;66386;52.122;5.420;2024-03-22T11:32:36;101717.41;;;11.00;100.00
71770;BME280;66386;52.122;5.420;2024-03-22T11:35:13;101713.63;;;11.14;100.00
71770;BME280;66386;52.122;5.420;2024-03-22T11:37:39;101710.03;;;11.21;100.00
71770;BME280;66386;52.122;5.420;2024-03-22T11:40:08;101712.47;;;11.27;100.00
71770;BME280;66386;52.122;5.420;2024-03-22T11:42:47;101707.63;;;11.15;100.00
71770;BME280;66386;52.122;5.420;2024-03-22T11:45:15;101701.47;;;11.21;100.00
71770;BME280;66386;52.122;5.420;2024-03-22T11:47:42;101698.81;;;11.24;100.00
71770;BME280;66386;52.122;5.420;2024-03-22T11:50:07;101699.63;;;11.26;100.00
71770;BME280;66386;52.122;5.420;2024-03-22T11:52:34;101692.78;;;11.25;100.00
71770;BME280;66386;52.122;5.420;2024-03-22T11:55:00;101697.94;;;11.25;100.00
71770;BME280;66386;52.122;5.420;2024-03-22T11:57:27;101692.84;;;11.23;100.00
71770;BME280;66386;52.122;5.420;2024-03-22T11:59:59;101694.69;;;11.16;100.00
71770;BME280;66386;52.122;5.420;2024-03-22T12:02:25;101688.94;;;11.07;100.00
71770;BME280;66386;52.122;5.420;2024-03-22T12:04:50;101684.81;;;11.01;100.00
71770;BME280;66386;52.122;5.420;2024-03-22T12:07:17;101689.13;;;10.99;100.00
71770;BME280;66386;52.122;5.420;2024-03-22T12:09:43;101690.00;;;10.98;100.00
71770;BME280;66386;52.122;5.420;2024-03-22T12:12:11;101677.44;;;10.87;100.00
71770;BME280;66386;52.122;5.420;2024-03-22T12:14:37;101679.97;;;10.89;100.00
71770;BME280;66386;52.122;5.420;2024-03-22T12:17:04;101687.69;;;10.89;100.00
71770;BME280;66386;52.122;5.420;2024-03-22T12:19:30;101685.16;;;10.87;100.00
71770;BME280;66386;52.122;5.420;2024-03-22T12:21:55;101682.66;;;10.84;100.00
71770;BME280;66386;52.122;5.420;2024-03-22T12:24:22;101683.56;;;10.81;100.00
71770;BME280;66386;52.122;5.420;2024-03-22T12:26:48;101684.34;;;10.85;100.00
71770;BME280;66386;52.122;5.420;2024-03-22T12:29:15;101685.97;;;10.88;100.00
71770;BME280;66386;52.122;5.420;2024-03-22T12:31:41;101684.59;;;10.74;100.00
71770;BME280;66386;52.122;5.420;2024-03-22T12:34:07;101686.41;;;10.71;100.00
71770;BME280;66386;52.122;5.420;2024-03-22T12:36:32;101674.44;;;10.70;100.00